createdAt,value
2023-04-29T00:00:00.386Z,95813.50
2023-04-29T00:01:03.590Z,95815.59
2023-04-29T00:02:05.204Z,95816.59
2023-04-29T00:03:06.986Z,95815.63
2023-04-29T00:04:09.318Z,95811.22
2023-04-29T00:05:11.217Z,95819.84
2023-04-29T00:06:13.178Z,95809.38
2023-04-29T00:07:15.870Z,95810.84
2023-04-29T00:08:17.736Z,95801.00
2023-04-29T00:09:19.265Z,95808.66
2023-04-29T00:10:20.746Z,95803.13
2023-04-29T00:11:22.270Z,95807.66
2023-04-29T00:12:23.756Z,95805.22
2023-04-29T00:13:26.060Z,95809.78
2023-04-29T00:14:27.788Z,95806.47
2023-04-29T00:15:29.385Z,95804.00
2023-04-29T00:16:31.051Z,95797.13
2023-04-29T00:17:32.827Z,95801.75
2023-04-29T00:18:34.382Z,95807.22
2023-04-29T00:19:35.896Z,95807.91
2023-04-29T00:20:40.192Z,95798.06
2023-04-29T00:21:41.761Z,95804.69
2023-04-29T00:22:43.503Z,95805.28
2023-04-29T00:23:44.989Z,95800.34
2023-04-29T00:24:46.750Z,95807.81
2023-04-29T00:25:48.243Z,95803.06
2023-04-29T00:26:49.789Z,95805.97
2023-04-29T00:27:51.231Z,95806.97
2023-04-29T00:28:52.799Z,95805.50
2023-04-29T00:29:54.607Z,95813.31
2023-04-29T00:30:56.342Z,95806.19
2023-04-29T00:31:59.184Z,95809.88
2023-04-29T00:33:01.135Z,95809.88
2023-04-29T00:34:03.026Z,95809.41
2023-04-29T00:35:04.938Z,95811.06
2023-04-29T00:36:07.450Z,95804.22
2023-04-29T00:37:08.955Z,95807.34
2023-04-29T00:38:10.760Z,95802.03
2023-04-29T00:39:15.302Z,95806.59
2023-04-29T00:40:17.419Z,95805.13
2023-04-29T00:41:19.605Z,95801.81
2023-04-29T00:42:21.712Z,95800.75
2023-04-29T00:43:23.354Z,95804.47
2023-04-29T00:44:24.898Z,95804.47
2023-04-29T00:45:27.536Z,95805.28
2023-04-29T00:46:29.058Z,95804.25
2023-04-29T00:47:30.573Z,95807.97
2023-04-29T00:48:33.034Z,95806.59
2023-04-29T00:49:34.577Z,95810.94
2023-04-29T00:50:36.986Z,95812.19
2023-04-29T00:51:40.676Z,95801.94
2023-04-29T00:52:43.228Z,95816.34
2023-04-29T00:53:45.102Z,95814.69
2023-04-29T00:54:46.862Z,95813.47
2023-04-29T00:55:51.655Z,95809.97
2023-04-29T00:56:54.585Z,95812.41
2023-04-29T00:57:57.059Z,95812.41
2023-04-29T00:58:59.566Z,95815.91
2023-04-29T01:00:01.372Z,95818.34
2023-04-29T01:01:06.445Z,95813.00
2023-04-29T01:02:08.904Z,95821.03
2023-04-29T01:03:10.936Z,95818.56
2023-04-29T01:04:12.941Z,95816.09
2023-04-29T01:05:15.288Z,95818.13
2023-04-29T01:06:33.790Z,95813.63
2023-04-29T01:07:56.465Z,95809.31
2023-04-29T01:09:06.880Z,95816.72
2023-04-29T01:10:28.705Z,95808.88
2023-04-29T01:11:39.982Z,95818.09
2023-04-29T01:12:41.631Z,95805.41
2023-04-29T01:13:58.885Z,95811.59
2023-04-29T01:15:10.993Z,95801.72
2023-04-29T01:16:23.509Z,95802.09
2023-04-29T01:17:30.781Z,95807.66
2023-04-29T01:18:43.656Z,95803.53
2023-04-29T01:19:57.115Z,95812.44
2023-04-29T01:20:59.847Z,95807.66
2023-04-29T01:22:01.683Z,95805.00
2023-04-29T01:23:05.079Z,95810.41
2023-04-29T01:24:06.808Z,95818.44
2023-04-29T01:25:09.958Z,95803.81
2023-04-29T01:26:33.105Z,95799.09
2023-04-29T01:28:26.528Z,95802.59
2023-04-29T01:29:40.060Z,95800.53
2023-04-29T01:30:55.053Z,95799.44
2023-04-29T01:32:05.555Z,95799.06
2023-04-29T01:33:23.044Z,95807.69
2023-04-29T01:34:49.679Z,95805.25
2023-04-29T01:36:13.473Z,95797.84
2023-04-29T01:37:23.066Z,95807.31
2023-04-29T01:38:47.411Z,95803.81
2023-04-29T01:39:56.918Z,95798.28
2023-04-29T01:41:05.397Z,95801.28
2023-04-29T01:42:46.836Z,95800.09
2023-04-29T01:43:52.778Z,95796.63
2023-04-29T01:45:05.339Z,95796.44
2023-04-29T01:46:10.043Z,95796.00
2023-04-29T01:47:14.297Z,95796.84
2023-04-29T01:48:21.635Z,95799.31
2023-04-29T01:49:27.026Z,95795.63
2023-04-29T01:50:28.553Z,95796.81
2023-04-29T01:51:34.714Z,95794.78
2023-04-29T01:52:36.809Z,95790.50
2023-04-29T01:53:40.395Z,95794.22
2023-04-29T01:54:41.917Z,95792.56
2023-04-29T01:55:44.008Z,95798.94
2023-04-29T01:56:58.664Z,95796.69
2023-04-29T01:58:18.268Z,95802.69
2023-04-29T01:59:35.217Z,95801.44
2023-04-29T02:01:11.955Z,95797.53
2023-04-29T02:02:15.265Z,95796.69
2023-04-29T02:03:26.844Z,95801.59
2023-04-29T02:04:33.669Z,95805.56
2023-04-29T02:05:36.153Z,95797.34
2023-04-29T02:06:37.760Z,95797.75
2023-04-29T02:07:40.482Z,95792.81
2023-04-29T02:08:42.004Z,95790.56
2023-04-29T02:09:43.450Z,95796.31
2023-04-29T02:10:56.736Z,95800.03
2023-04-29T02:12:13.140Z,95799.66
2023-04-29T02:13:15.041Z,95803.38
2023-04-29T02:14:17.117Z,95798.81
2023-04-29T02:15:19.658Z,95799.84
2023-04-29T02:16:21.843Z,95791.81
2023-04-29T02:17:36.041Z,95802.75
2023-04-29T02:18:37.741Z,95803.97
2023-04-29T02:19:40.441Z,95803.97
2023-04-29T02:20:42.289Z,95799.84
2023-04-29T02:21:44.065Z,95803.97
2023-04-29T02:22:45.953Z,95805.41
2023-04-29T02:23:47.639Z,95805.19
2023-04-29T02:24:49.151Z,95805.19
2023-04-29T02:25:50.885Z,95803.16
2023-04-29T02:26:52.983Z,95802.94
2023-04-29T02:27:54.559Z,95808.72
2023-04-29T02:28:57.236Z,95808.28
2023-04-29T02:29:58.884Z,95807.84
2023-04-29T02:31:01.039Z,95798.81
2023-04-29T02:32:02.610Z,95800.66
2023-04-29T02:33:05.249Z,95795.91
2023-04-29T02:34:08.625Z,95799.78
2023-04-29T02:35:10.094Z,95791.56
2023-04-29T02:36:11.601Z,95798.59
2023-04-29T02:37:13.144Z,95795.34
2023-04-29T02:38:14.964Z,95801.06
2023-04-29T02:39:17.214Z,95794.72
2023-04-29T02:40:20.281Z,95792.44
2023-04-29T02:41:22.165Z,95798.81
2023-04-29T02:42:23.892Z,95797.16
2023-04-29T02:43:25.368Z,95793.03
2023-04-29T02:44:26.910Z,95799.84
2023-04-29T02:45:28.534Z,95794.06
2023-04-29T02:46:30.085Z,95791.22
2023-04-29T02:47:31.924Z,95790.59
2023-04-29T02:48:33.636Z,95793.88
2023-04-29T02:49:35.096Z,95796.16
2023-04-29T02:50:36.612Z,95796.94
2023-04-29T02:51:38.826Z,95793.69
2023-04-29T02:52:41.985Z,95793.09
2023-04-29T02:53:44.122Z,95797.41
2023-04-29T02:54:45.881Z,95798.03
2023-04-29T02:55:48.377Z,95795.16
2023-04-29T02:56:49.904Z,95792.47
2023-04-29T02:57:51.422Z,95798.88
2023-04-29T02:58:52.949Z,95793.75
2023-04-29T02:59:54.633Z,95802.16
2023-04-29T03:00:56.601Z,95794.34
2023-04-29T03:01:58.679Z,95794.34
2023-04-29T03:03:00.342Z,95801.56
2023-04-29T03:04:02.160Z,95799.53
2023-04-29T03:05:04.764Z,95799.31
2023-04-29T03:06:06.239Z,95801.97
2023-04-29T03:07:08.290Z,95801.34
2023-04-29T03:08:10.814Z,95799.31
2023-04-29T03:09:13.279Z,95797.25
2023-04-29T03:10:14.882Z,95811.44
2023-04-29T03:11:16.658Z,95805.91
2023-04-29T03:12:18.146Z,95805.47
2023-04-29T03:13:21.119Z,95806.09
2023-04-29T03:14:23.842Z,95800.75
2023-04-29T03:15:28.423Z,95805.69
2023-04-29T03:16:30.373Z,95804.25
2023-04-29T03:17:32.026Z,95803.00
2023-04-29T03:18:33.590Z,95806.91
2023-04-29T03:19:35.133Z,95809.38
2023-04-29T03:20:37.346Z,95803.00
2023-04-29T03:21:39.693Z,95806.72
2023-04-29T03:22:41.529Z,95808.56
2023-04-29T03:23:44.815Z,95801.97
2023-04-29T03:24:52.266Z,95803.22
2023-04-29T03:25:55.869Z,95795.63
2023-04-29T03:27:00.041Z,95792.75
2023-04-29T03:28:01.579Z,95793.53
2023-04-29T03:29:03.631Z,95800.75
2023-04-29T03:30:06.879Z,95798.88
2023-04-29T03:31:12.094Z,95795.19
2023-04-29T03:32:13.783Z,95795.63
2023-04-29T03:33:15.638Z,95807.34
2023-04-29T03:34:17.245Z,95802.63
2023-04-29T03:35:25.013Z,95802.81
2023-04-29T03:36:46.714Z,95800.97
2023-04-29T03:37:48.211Z,95804.47
2023-04-29T03:38:59.057Z,95802.00
2023-04-29T03:40:01.504Z,95790.91
2023-04-29T03:41:03.243Z,95793.56
2023-04-29T03:42:06.174Z,95793.56
2023-04-29T03:43:09.365Z,95792.53
2023-04-29T03:44:11.093Z,95794.41
2023-04-29T03:45:14.468Z,95795.00
2023-04-29T03:46:16.096Z,95790.72
2023-04-29T03:47:17.617Z,95798.69
2023-04-29T03:48:21.412Z,95796.88
2023-04-29T03:49:23.962Z,95797.06
2023-04-29T03:50:26.078Z,95799.72
2023-04-29T03:51:28.247Z,95793.78
2023-04-29T03:52:39.247Z,95792.34
2023-04-29T03:53:46.027Z,95788.63
2023-04-29T03:54:47.917Z,95795.84
2023-04-29T03:55:49.519Z,95793.38
2023-04-29T03:56:51.532Z,95789.47
2023-04-29T03:57:53.118Z,95794.78
2023-04-29T03:58:54.701Z,95785.38
2023-04-29T04:00:01.178Z,95792.34
2023-04-29T04:01:03.080Z,95797.47
2023-04-29T04:02:12.460Z,95791.72
2023-04-29T04:03:15.078Z,95784.09
2023-04-29T04:04:17.545Z,95787.19
2023-04-29T04:05:22.414Z,95784.72
2023-04-29T04:06:28.683Z,95785.75
2023-04-29T04:07:30.242Z,95788.00
2023-04-29T04:08:57.996Z,95789.66
2023-04-29T04:10:03.043Z,95796.25
2023-04-29T04:11:05.676Z,95802.56
2023-04-29T04:12:10.851Z,95798.28
2023-04-29T04:13:14.186Z,95797.66
2023-04-29T04:14:17.372Z,95796.00
2023-04-29T04:15:19.326Z,95800.53
2023-04-29T04:16:20.861Z,95804.81
2023-04-29T04:17:22.423Z,95806.06
2023-04-29T04:18:24.147Z,95804.03
2023-04-29T04:19:27.083Z,95814.72
2023-04-29T04:20:29.003Z,95812.25
2023-04-29T04:21:31.712Z,95813.28
2023-04-29T04:22:38.997Z,95814.13
2023-04-29T04:23:59.642Z,95814.53
2023-04-29T04:25:03.008Z,95817.41
2023-04-29T04:26:04.578Z,95821.91
2023-04-29T04:27:26.627Z,95821.91
2023-04-29T04:28:28.784Z,95820.88
2023-04-29T04:29:37.802Z,95817.19
2023-04-29T04:30:46.821Z,95820.66
2023-04-29T04:31:48.398Z,95818.22
2023-04-29T04:32:51.995Z,95820.28
2023-04-29T04:33:53.611Z,95822.53
2023-04-29T04:34:55.266Z,95819.47
2023-04-29T04:35:57.246Z,95820.06
2023-04-29T04:36:58.849Z,95828.09
2023-04-29T04:38:00.362Z,95814.94
2023-04-29T04:39:01.937Z,95817.63
2023-04-29T04:40:03.805Z,95815.16
2023-04-29T04:41:08.889Z,95815.19
2023-04-29T04:42:12.428Z,95818.03
2023-04-29T04:43:14.453Z,95819.47
2023-04-29T04:44:16.825Z,95815.56
2023-04-29T04:45:41.919Z,95818.41
2023-04-29T04:46:43.944Z,95814.72
2023-04-29T04:48:03.356Z,95814.72
2023-04-29T04:49:08.021Z,95820.06
2023-04-29T04:50:16.741Z,95822.75
2023-04-29T04:51:21.837Z,95825.41
2023-04-29T04:52:24.012Z,95825.41
2023-04-29T04:53:38.201Z,95824.81
2023-04-29T04:54:46.544Z,95826.44
2023-04-29T04:55:52.696Z,95827.88
2023-04-29T04:56:54.280Z,95821.88
2023-04-29T04:57:55.735Z,95831.16
2023-04-29T04:58:57.682Z,95824.38
2023-04-29T04:59:59.256Z,95835.28
2023-04-29T05:01:02.225Z,95829.69
2023-04-29T05:02:04.163Z,95835.69
2023-04-29T05:03:06.089Z,95826.44
2023-04-29T05:04:08.125Z,95833.66
2023-04-29T05:05:10.187Z,95835.69
2023-04-29T05:06:13.939Z,95836.94
2023-04-29T05:07:17.776Z,95834.25
2023-04-29T05:08:34.701Z,95837.53
2023-04-29T05:09:38.686Z,95842.47
2023-04-29T05:10:40.446Z,95840.03
2023-04-29T05:11:42.469Z,95850.69
2023-04-29T05:12:49.843Z,95852.97
2023-04-29T05:13:51.640Z,95848.22
2023-04-29T05:14:53.542Z,95853.56
2023-04-29T05:15:55.056Z,95858.31
2023-04-29T05:17:00.937Z,95855.59
2023-04-29T05:18:02.750Z,95857.25
2023-04-29T05:19:05.920Z,95859.91
2023-04-29T05:20:11.914Z,95860.91
2023-04-29T05:21:15.035Z,95864.50
2023-04-29T05:22:18.281Z,95860.91
2023-04-29T05:23:19.751Z,95865.63
2023-04-29T05:24:22.049Z,95856.59
2023-04-29T05:25:24.053Z,95860.91
2023-04-29T05:26:25.694Z,95859.94
2023-04-29T05:27:30.256Z,95851.75
2023-04-29T05:28:32.516Z,95853.72
2023-04-29T05:29:34.247Z,95862.31
2023-04-29T05:30:38.010Z,95857.28
2023-04-29T05:31:40.564Z,95856.22
2023-04-29T05:32:42.118Z,95860.25
2023-04-29T05:33:47.945Z,95862.22
2023-04-29T05:34:49.476Z,95859.22
2023-04-29T05:35:51.785Z,95859.28
2023-04-29T05:36:53.208Z,95863.59
2023-04-29T05:37:54.880Z,95862.88
2023-04-29T05:39:09.717Z,95870.47
2023-04-29T05:40:12.205Z,95874.75
2023-04-29T05:41:14.430Z,95879.25
2023-04-29T05:42:35.178Z,95877.59
2023-04-29T05:43:37.056Z,95881.16
2023-04-29T05:44:39.693Z,95882.09
2023-04-29T05:45:41.189Z,95889.59
2023-04-29T05:46:42.797Z,95879.78
2023-04-29T05:47:44.395Z,95883.75
2023-04-29T05:48:46.125Z,95884.06
2023-04-29T05:49:48.098Z,95884.78
2023-04-29T05:50:49.592Z,95887.16
2023-04-29T05:51:51.493Z,95886.81
2023-04-29T05:52:54.640Z,95888.81
2023-04-29T05:53:56.545Z,95889.84
2023-04-29T05:54:58.308Z,95891.28
2023-04-29T05:56:00.057Z,95892.84
2023-04-29T05:57:05.104Z,95891.09
2023-04-29T05:58:06.612Z,95897.53
2023-04-29T05:59:08.620Z,95900.78
2023-04-29T06:00:11.190Z,95898.53
2023-04-29T06:01:15.316Z,95897.38
2023-04-29T06:02:16.987Z,95894.69
2023-04-29T06:03:18.773Z,95898.66
2023-04-29T06:04:22.271Z,95904.19
2023-04-29T06:05:47.441Z,95909.72
2023-04-29T06:07:09.036Z,95914.19
2023-04-29T06:08:23.950Z,95910.03
2023-04-29T06:09:28.327Z,95905.09
2023-04-29T06:10:36.982Z,95907.25
2023-04-29T06:11:38.824Z,95905.91
2023-04-29T06:12:40.637Z,95905.16
2023-04-29T06:13:42.393Z,95910.41
2023-04-29T06:14:43.955Z,95907.88
2023-04-29T06:15:45.503Z,95917.56
2023-04-29T06:16:49.469Z,95915.31
2023-04-29T06:17:51.280Z,95923.47
2023-04-29T06:18:52.994Z,95914.88
2023-04-29T06:19:55.181Z,95921.56
2023-04-29T06:20:58.572Z,95930.44
2023-04-29T06:22:00.305Z,95925.91
2023-04-29T06:23:01.751Z,95932.78
2023-04-29T06:24:03.952Z,95925.75
2023-04-29T06:25:06.034Z,95932.69
2023-04-29T06:26:20.936Z,95935.50
2023-04-29T06:27:22.384Z,95928.72
2023-04-29T06:28:24.059Z,95938.44
2023-04-29T06:29:25.902Z,95937.03
2023-04-29T06:30:28.752Z,95941.84
2023-04-29T06:31:30.552Z,95935.75
2023-04-29T06:32:37.650Z,95944.66
2023-04-29T06:33:39.951Z,95949.91
2023-04-29T06:34:41.739Z,95941.59
2023-04-29T06:36:07.847Z,95948.03
2023-04-29T06:37:12.452Z,95950.38
2023-04-29T06:38:31.015Z,95948.84
2023-04-29T06:39:51.654Z,95949.88
2023-04-29T06:41:09.182Z,95948.19
2023-04-29T06:42:10.836Z,95947.56
2023-04-29T06:43:15.268Z,95947.03
2023-04-29T06:44:19.759Z,95951.56
2023-04-29T06:45:40.007Z,95957.94
2023-04-29T06:46:44.552Z,95965.13
2023-04-29T06:47:52.737Z,95958.69
2023-04-29T06:49:08.290Z,95961.81
2023-04-29T06:50:10.269Z,95963.41
2023-04-29T06:51:12.007Z,95961.09
2023-04-29T06:52:13.884Z,95962.47
2023-04-29T06:53:17.867Z,95956.69
2023-04-29T06:54:20.098Z,95957.31
2023-04-29T06:55:25.042Z,95965.13
2023-04-29T06:56:26.952Z,95958.91
2023-04-29T06:57:28.568Z,95958.81
2023-04-29T06:58:30.639Z,95963.59
2023-04-29T06:59:32.833Z,95971.22
2023-04-29T07:00:34.276Z,95963.44
2023-04-29T07:01:36.297Z,95961.59
2023-04-29T07:02:39.372Z,95962.97
2023-04-29T07:03:41.045Z,95961.50
2023-04-29T07:04:42.685Z,95968.63
2023-04-29T07:05:48.000Z,95962.19
2023-04-29T07:06:49.535Z,95964.09
2023-04-29T07:07:52.017Z,95967.25
2023-04-29T07:08:56.263Z,95965.44
2023-04-29T07:09:58.409Z,95962.50
2023-04-29T07:11:01.521Z,95960.75
2023-04-29T07:12:04.267Z,95966.66
2023-04-29T07:13:05.944Z,95968.78
2023-04-29T07:14:08.085Z,95966.75
2023-04-29T07:15:09.981Z,95965.09
2023-04-29T07:16:20.000Z,95970.75
2023-04-29T07:17:21.648Z,95980.81
2023-04-29T07:18:23.460Z,95976.34
2023-04-29T07:19:25.003Z,95978.41
2023-04-29T07:20:27.344Z,95979.34
2023-04-29T07:21:30.770Z,95984.97
2023-04-29T07:22:32.278Z,95983.28
2023-04-29T07:23:33.891Z,95981.31
2023-04-29T07:24:35.371Z,95981.06
2023-04-29T07:25:36.898Z,95984.75
2023-04-29T07:26:40.686Z,95990.56
2023-04-29T07:27:42.276Z,95997.22
2023-04-29T07:28:44.756Z,95988.28
2023-04-29T07:29:46.273Z,95990.81
2023-04-29T07:30:48.129Z,95989.44
2023-04-29T07:31:49.699Z,95990.97
2023-04-29T07:32:51.456Z,95986.72
2023-04-29T07:33:53.602Z,95982.25
2023-04-29T07:34:55.919Z,95985.69
2023-04-29T07:35:57.470Z,95983.44
2023-04-29T07:36:58.976Z,95989.09
2023-04-29T07:38:00.468Z,95987.75
2023-04-29T07:39:02.185Z,95992.09
2023-04-29T07:40:04.195Z,95989.97
2023-04-29T07:41:05.737Z,95991.50
2023-04-29T07:42:07.270Z,95988.50
2023-04-29T07:43:09.426Z,95986.59
2023-04-29T07:44:10.996Z,95988.50
2023-04-29T07:45:13.820Z,95993.56
2023-04-29T07:46:18.180Z,95988.72
2023-04-29T07:47:19.964Z,95986.59
2023-04-29T07:48:22.379Z,95989.66
2023-04-29T07:49:23.963Z,95989.84
2023-04-29T07:50:26.346Z,95991.06
2023-04-29T07:51:29.122Z,95994.91
2023-04-29T07:52:30.941Z,95990.72
2023-04-29T07:53:32.651Z,95993.88
2023-04-29T07:54:34.485Z,95995.25
2023-04-29T07:55:37.846Z,95993.41
2023-04-29T07:56:40.155Z,96006.19
2023-04-29T07:57:42.459Z,95995.75
2023-04-29T07:58:43.945Z,95999.13
2023-04-29T07:59:45.442Z,95994.56
2023-04-29T08:00:47.333Z,95991.94
2023-04-29T08:01:48.928Z,95999.41
2023-04-29T08:02:55.419Z,96001.22
2023-04-29T08:03:58.127Z,96003.56
2023-04-29T08:05:02.978Z,96003.75
2023-04-29T08:06:05.408Z,95997.91
2023-04-29T08:07:09.439Z,95995.44
2023-04-29T08:08:11.291Z,95998.81
2023-04-29T08:09:13.014Z,96000.69
2023-04-29T08:10:17.292Z,95989.84
2023-04-29T08:11:19.700Z,95998.91
2023-04-29T08:12:21.248Z,95998.50
2023-04-29T08:13:22.802Z,95994.97
2023-04-29T08:14:24.477Z,95998.97
2023-04-29T08:15:26.146Z,96000.59
2023-04-29T08:16:28.170Z,95998.88
2023-04-29T08:17:29.710Z,96004.25
2023-04-29T08:18:31.276Z,95997.38
2023-04-29T08:19:33.204Z,95999.75
2023-04-29T08:20:34.667Z,96004.47
2023-04-29T08:21:36.170Z,95998.94
2023-04-29T08:22:37.710Z,96005.00
2023-04-29T08:23:40.154Z,96006.47
2023-04-29T08:24:42.790Z,96004.63
2023-04-29T08:25:44.545Z,96004.47
2023-04-29T08:26:47.352Z,96003.59
2023-04-29T08:27:49.052Z,96004.94
2023-04-29T08:28:50.741Z,96010.25
2023-04-29T08:29:52.369Z,96005.50
2023-04-29T08:30:53.899Z,96003.94
2023-04-29T08:31:55.537Z,96005.06
2023-04-29T08:32:57.086Z,95999.00
2023-04-29T08:33:58.725Z,96000.50
2023-04-29T08:35:00.275Z,96002.06
2023-04-29T08:36:03.681Z,95999.41
2023-04-29T08:37:05.492Z,96001.09
2023-04-29T08:38:08.290Z,95998.91
2023-04-29T08:39:09.826Z,96006.53
2023-04-29T08:40:13.287Z,96004.25
2023-04-29T08:41:16.986Z,96007.22
2023-04-29T08:42:30.360Z,96003.53
2023-04-29T08:43:33.997Z,96001.56
2023-04-29T08:44:36.903Z,96002.50
2023-04-29T08:45:40.027Z,96006.97
2023-04-29T08:46:42.070Z,96003.94
2023-04-29T08:47:44.501Z,96006.44
2023-04-29T08:48:46.606Z,96004.09
2023-04-29T08:49:48.283Z,96000.81
2023-04-29T08:50:50.010Z,96007.03
2023-04-29T08:51:52.156Z,96008.50
2023-04-29T08:52:54.131Z,96006.56
2023-04-29T08:53:56.590Z,96004.13
2023-04-29T08:55:05.672Z,96000.75
2023-04-29T08:56:17.873Z,96011.34
2023-04-29T08:57:20.791Z,96013.09
2023-04-29T08:58:22.585Z,96013.44
2023-04-29T08:59:25.352Z,96007.44
2023-04-29T09:00:26.989Z,96009.03
2023-04-29T09:01:29.700Z,96003.19
2023-04-29T09:02:32.051Z,96006.47
2023-04-29T09:03:41.346Z,96004.63
2023-04-29T09:05:12.274Z,96002.78
2023-04-29T09:06:14.815Z,96002.53
2023-04-29T09:07:17.156Z,96003.28
2023-04-29T09:08:18.987Z,96005.84
2023-04-29T09:09:21.288Z,96004.25
2023-04-29T09:10:23.730Z,96005.88
2023-04-29T09:11:27.170Z,96005.75
2023-04-29T09:12:30.344Z,96006.06
2023-04-29T09:13:33.016Z,96011.72
2023-04-29T09:14:34.641Z,96010.84
2023-04-29T09:15:42.650Z,96004.84
2023-04-29T09:16:46.861Z,96006.38
2023-04-29T09:17:49.241Z,96007.50
2023-04-29T09:18:51.949Z,96012.38
2023-04-29T09:19:53.769Z,96004.56
2023-04-29T09:20:55.346Z,96003.84
2023-04-29T09:21:57.148Z,96006.28
2023-04-29T09:23:01.685Z,96005.66
2023-04-29T09:24:03.844Z,96008.47
2023-04-29T09:25:15.180Z,96003.84
2023-04-29T09:26:17.151Z,96004.13
2023-04-29T09:27:29.297Z,96010.59
2023-04-29T09:28:31.065Z,96006.97
2023-04-29T09:29:34.025Z,96003.25
2023-04-29T09:30:46.165Z,95998.69
2023-04-29T09:31:48.401Z,96005.69
2023-04-29T09:33:08.378Z,96012.28
2023-04-29T09:34:11.696Z,96010.69
2023-04-29T09:35:23.658Z,96013.97
2023-04-29T09:36:48.472Z,96014.84
2023-04-29T09:37:50.044Z,96016.47
2023-04-29T09:38:58.174Z,96017.09
2023-04-29T09:40:00.012Z,96015.66
2023-04-29T09:41:11.962Z,96010.91
2023-04-29T09:42:14.389Z,96021.09
2023-04-29T09:43:18.293Z,96015.44
2023-04-29T09:44:22.450Z,96009.59
2023-04-29T09:45:36.996Z,96014.66
2023-04-29T09:46:38.681Z,96027.41
2023-04-29T09:47:40.248Z,96023.19
2023-04-29T09:48:41.720Z,96023.53
2023-04-29T09:49:46.090Z,96020.31
2023-04-29T09:51:04.437Z,96017.44
2023-04-29T09:52:08.835Z,96020.84
2023-04-29T09:53:11.568Z,96025.38
2023-04-29T09:54:21.813Z,96024.50
2023-04-29T09:55:23.350Z,96021.63
2023-04-29T09:56:29.042Z,96016.13
2023-04-29T09:57:43.346Z,96024.31
2023-04-29T09:58:46.576Z,96020.81
2023-04-29T09:59:48.017Z,96019.00
2023-04-29T10:00:49.695Z,96019.91
2023-04-29T10:01:53.615Z,96021.97
2023-04-29T10:02:59.298Z,96016.88
2023-04-29T10:04:01.813Z,96017.59
2023-04-29T10:05:03.822Z,96024.16
2023-04-29T10:06:07.252Z,96024.22
2023-04-29T10:07:09.338Z,96021.66
2023-04-29T10:08:10.776Z,96032.22
2023-04-29T10:09:16.987Z,96021.31
2023-04-29T10:10:19.008Z,96019.66
2023-04-29T10:11:20.655Z,96018.25
2023-04-29T10:12:22.588Z,96025.47
2023-04-29T10:13:26.851Z,96026.91
2023-04-29T10:14:32.577Z,96030.19
2023-04-29T10:15:43.878Z,96026.19
2023-04-29T10:16:54.507Z,96026.09
2023-04-29T10:18:22.138Z,96031.09
2023-04-29T10:19:35.593Z,96030.19
2023-04-29T10:20:41.034Z,96022.19
2023-04-29T10:21:42.674Z,96028.56
2023-04-29T10:22:49.110Z,96020.28
2023-04-29T10:23:51.697Z,96020.94
2023-04-29T10:24:55.873Z,96029.50
2023-04-29T10:25:59.089Z,96027.94
2023-04-29T10:27:00.820Z,96024.28
2023-04-29T10:28:04.449Z,96021.69
2023-04-29T10:29:08.225Z,96031.03
2023-04-29T10:30:14.033Z,96019.19
2023-04-29T10:31:19.865Z,96019.03
2023-04-29T10:32:22.261Z,96020.91
2023-04-29T10:33:24.788Z,96026.78
2023-04-29T10:34:26.689Z,96023.41
2023-04-29T10:35:28.530Z,96021.97
2023-04-29T10:36:31.445Z,96027.41
2023-04-29T10:37:33.017Z,96021.38
2023-04-29T10:38:41.939Z,96012.63
2023-04-29T10:40:17.831Z,96022.31
2023-04-29T10:41:25.564Z,96020.34
2023-04-29T10:42:43.486Z,96007.84
2023-04-29T10:43:46.618Z,96009.56
2023-04-29T10:45:29.901Z,96010.63
2023-04-29T10:46:31.453Z,96016.66
2023-04-29T10:47:33.017Z,96021.66
2023-04-29T10:48:34.568Z,96017.56
2023-04-29T10:49:36.209Z,96021.63
2023-04-29T10:51:00.036Z,96015.28
2023-04-29T10:52:04.343Z,96020.63
2023-04-29T10:53:05.979Z,96020.19
2023-04-29T10:54:17.868Z,96014.06
2023-04-29T10:55:19.418Z,96016.75
2023-04-29T10:56:22.025Z,96019.38
2023-04-29T10:57:25.204Z,96017.66
2023-04-29T10:58:35.873Z,96010.25
2023-04-29T10:59:37.310Z,96009.69
2023-04-29T11:00:38.904Z,96009.19
2023-04-29T11:01:48.510Z,96008.00
2023-04-29T11:02:50.050Z,96013.75
2023-04-29T11:03:59.015Z,96012.34
2023-04-29T11:05:09.387Z,96008.28
2023-04-29T11:06:11.742Z,96001.06
2023-04-29T11:07:28.091Z,96013.03
2023-04-29T11:08:30.020Z,96007.25
2023-04-29T11:09:34.271Z,96001.63
2023-04-29T11:10:36.901Z,96011.53
2023-04-29T11:11:57.991Z,96011.13
2023-04-29T11:13:24.979Z,96007.94
2023-04-29T11:14:38.732Z,96010.31
2023-04-29T11:15:40.770Z,96009.41
2023-04-29T11:16:57.903Z,96006.56
2023-04-29T11:18:01.985Z,96003.59
2023-04-29T11:19:11.028Z,96004.59
2023-04-29T11:20:15.564Z,96009.50
2023-04-29T11:21:17.125Z,96010.81
2023-04-29T11:22:30.772Z,96008.09
2023-04-29T11:23:36.487Z,96002.63
2023-04-29T11:24:49.433Z,96009.69
2023-04-29T11:25:51.125Z,96006.00
2023-04-29T11:26:52.767Z,96001.22
2023-04-29T11:27:56.713Z,96003.13
2023-04-29T11:28:58.773Z,96005.03
2023-04-29T11:30:01.751Z,95996.41
2023-04-29T11:31:03.981Z,95990.72
2023-04-29T11:32:06.009Z,95998.16
2023-04-29T11:33:09.177Z,95993.72
2023-04-29T11:34:10.940Z,95999.72
2023-04-29T11:35:14.887Z,96000.78
2023-04-29T11:36:16.663Z,95997.28
2023-04-29T11:37:26.271Z,95998.63
2023-04-29T11:38:29.177Z,96009.44
2023-04-29T11:39:35.564Z,96001.69
2023-04-29T11:40:42.488Z,95999.22
2023-04-29T11:41:43.979Z,96009.47
2023-04-29T11:42:49.637Z,96013.63
2023-04-29T11:43:59.459Z,96011.19
2023-04-29T11:45:00.965Z,96014.09
2023-04-29T11:46:02.497Z,96014.75
2023-04-29T11:47:05.042Z,96015.69
2023-04-29T11:48:06.649Z,96015.41
2023-04-29T11:49:08.363Z,96011.38
2023-04-29T11:50:10.479Z,96017.47
2023-04-29T11:51:12.191Z,96015.38
2023-04-29T11:52:13.720Z,96016.28
2023-04-29T11:53:15.653Z,96009.03
2023-04-29T11:54:17.261Z,96008.22
2023-04-29T11:55:19.687Z,96009.03
2023-04-29T11:56:25.429Z,96008.16
2023-04-29T11:57:27.069Z,96008.16
2023-04-29T11:58:28.656Z,96015.56
2023-04-29T11:59:32.755Z,96008.47
2023-04-29T12:00:34.982Z,96006.47
2023-04-29T12:01:36.491Z,96008.56
2023-04-29T12:02:38.157Z,96011.00
2023-04-29T12:03:40.895Z,96010.06
2023-04-29T12:04:49.201Z,96006.19
2023-04-29T12:05:52.419Z,96011.34
2023-04-29T12:06:57.045Z,96011.44
2023-04-29T12:07:58.547Z,96013.22
2023-04-29T12:09:00.918Z,96006.94
2023-04-29T12:10:02.463Z,96007.09
2023-04-29T12:11:07.427Z,96015.81
2023-04-29T12:12:08.989Z,96018.69
2023-04-29T12:13:11.499Z,96019.50
2023-04-29T12:14:14.252Z,96021.84
2023-04-29T12:15:15.906Z,96013.78
2023-04-29T12:16:17.981Z,96016.56
2023-04-29T12:17:20.514Z,96015.59
2023-04-29T12:18:23.375Z,96026.41
2023-04-29T12:19:24.992Z,96020.53
2023-04-29T12:20:29.101Z,96025.84
2023-04-29T12:21:31.877Z,96029.44
2023-04-29T12:22:33.829Z,96021.41
2023-04-29T12:23:35.879Z,96021.97
2023-04-29T12:24:38.695Z,96022.63
2023-04-29T12:25:44.085Z,96027.72
2023-04-29T12:26:46.622Z,96027.53
2023-04-29T12:27:48.475Z,96021.31
2023-04-29T12:28:55.481Z,96025.81
2023-04-29T12:29:57.620Z,96018.00
2023-04-29T12:30:59.189Z,96025.47
2023-04-29T12:32:00.791Z,96021.50
2023-04-29T12:33:02.624Z,96007.09
2023-04-29T12:34:09.674Z,96016.28
2023-04-29T12:35:16.763Z,96008.50
2023-04-29T12:36:18.995Z,96009.25
2023-04-29T12:37:23.445Z,96001.66
2023-04-29T12:38:27.720Z,96015.47